Ever Diamond — 3FQS8 — position and weather

sailwx.info

Track history (hours):
 
Tides and Currents Weather Stations Pressure Air Temp Water Temp Dewpoint Dewpoint Depression Visibility Wind Speed Wind Dir Waves Ship Positions

Ever Diamond

Last reported at 2016-May-30 00:33 UTC. Time now 2016-May-30 01:10 UTC.
Position N 39°15' W 076°33'.

Type: Ship (hazmat cat D). MMSI: 354893000.

Date/timePositionNaut miles runAvg speedWind from/ knotsBaromVisibWave heightAir tempDewpointWater temp
2016-May-30 00:33N 39°15' W 076°33'0 0.0
2016-May-29 23:33N 39°15' W 076°33'0 0.1
2016-May-29 22:33N 39°15' W 076°33'0 0.2
2016-May-29 21:28N 39°15' W 076°33'1 1.1
2016-May-29 20:33N 39°14' W 076°33'5 4.6
2016-May-29 19:32N 39°11' W 076°28'1111.4
2016-May-29 18:34N 39°01' W 076°22'1717.2
2016-May-29 17:33N 38°44' W 076°26'2318.9
2016-May-29 16:20N 38°22' W 076°19'1519.3
2016-May-29 15:33N 38°07' W 076°13'2018.2
2016-May-29 14:26N 37°47' W 076°11'1717.6
2016-May-29 13:28N 37°31' W 076°03'1617.8
2016-May-29 12:33N 37°15' W 076°08'1615.8
2016-May-29 11:33N 37°00' W 076°02'1313.1
2016-May-29 10:33N 36°52' W 075°50'1411.3
2016-May-29 09:18N 36°42' W 075°36'14315.9
2016-May-29 00:15N 34°20' W 075°51'  
2016-May-23 12:27N 09°59' W 079°35'1719.1
2016-May-23 11:33N 09°44' W 079°43'1818.1
2016-May-23 10:33N 09°28' W 079°53'6 5.3
2016-May-23 09:25N 09°22' W 079°53'0 0.0
2016-May-23 08:33N 09°22' W 079°53'0 0.0
2016-May-23 07:34N 09°22' W 079°53'0 0.0
2016-May-23 06:33N 09°22' W 079°53'0 0.0
2016-May-23 05:33N 09°22' W 079°53'0 0.0
2016-May-23 04:33N 09°22' W 079°53'0 0.0
2016-May-23 03:33N 09°22' W 079°53'0 0.0
2016-May-23 02:34N 09°22' W 079°53'0 0.0
2016-May-23 01:33N 09°22' W 079°53'0 0.0
2016-May-23 00:33N 09°22' W 079°53'0 0.0
2016-May-22 23:33N 09°22' W 079°53'0 0.0
2016-May-22 22:33N 09°22' W 079°53'0 0.0
2016-May-22 21:33N 09°22' W 079°53'0 0.0
2016-May-22 20:33N 09°22' W 079°53'0 0.1
2016-May-22 19:33N 09°22' W 079°53'2 2.0
2016-May-22 18:33N 09°21' W 079°55'5 4.8
2016-May-22 17:34N 09°17' W 079°55'0 0.4
2016-May-22 16:33N 09°16' W 079°55'3 3.5
2016-May-22 15:33N 09°13' W 079°55'1110.6
2016-May-22 14:33N 09°07' W 079°46'8 6.5
2016-May-22 13:19N 09°03' W 079°39'  
Track history (hours):
 
Tides and Currents Weather Stations Pressure Air Temp Water Temp Dewpoint Dewpoint Depression Visibility Wind Speed Wind Dir Waves Ship Positions

Ever Diamond

Last reported at 2016-May-30 00:33 UTC. Time now 2016-May-30 01:10 UTC.
Position N 39°15' W 076°33'.

Type: Ship (hazmat cat D). MMSI: 354893000.

Date/timePositionNaut miles runAvg speedWind from/ knotsBaromVisibWave heightAir tempDewpointWater temp
2016-May-30 00:33N 39°15' W 076°33'0 0.0
2016-May-29 23:33N 39°15' W 076°33'0 0.1
2016-May-29 22:33N 39°15' W 076°33'0 0.2
2016-May-29 21:28N 39°15' W 076°33'1 1.1
2016-May-29 20:33N 39°14' W 076°33'5 4.6
2016-May-29 19:32N 39°11' W 076°28'1111.4
2016-May-29 18:34N 39°01' W 076°22'1717.2
2016-May-29 17:33N 38°44' W 076°26'2318.9
2016-May-29 16:20N 38°22' W 076°19'1519.3
2016-May-29 15:33N 38°07' W 076°13'2018.2
2016-May-29 14:26N 37°47' W 076°11'1717.6
2016-May-29 13:28N 37°31' W 076°03'1617.8
2016-May-29 12:33N 37°15' W 076°08'1615.8
2016-May-29 11:33N 37°00' W 076°02'1313.1
2016-May-29 10:33N 36°52' W 075°50'1411.3
2016-May-29 09:18N 36°42' W 075°36'14315.9
2016-May-29 00:15N 34°20' W 075°51'  
2016-May-23 12:27N 09°59' W 079°35'1719.1
2016-May-23 11:33N 09°44' W 079°43'1818.1
2016-May-23 10:33N 09°28' W 079°53'6 5.3
2016-May-23 09:25N 09°22' W 079°53'0 0.0
2016-May-23 08:33N 09°22' W 079°53'0 0.0
2016-May-23 07:34N 09°22' W 079°53'0 0.0
2016-May-23 06:33N 09°22' W 079°53'0 0.0
2016-May-23 05:33N 09°22' W 079°53'0 0.0
2016-May-23 04:33N 09°22' W 079°53'0 0.0
2016-May-23 03:33N 09°22' W 079°53'0 0.0
2016-May-23 02:34N 09°22' W 079°53'0 0.0
2016-May-23 01:33N 09°22' W 079°53'0 0.0
2016-May-23 00:33N 09°22' W 079°53'0 0.0
2016-May-22 23:33N 09°22' W 079°53'0 0.0
2016-May-22 22:33N 09°22' W 079°53'0 0.0
2016-May-22 21:33N 09°22' W 079°53'0 0.0
2016-May-22 20:33N 09°22' W 079°53'0 0.1
2016-May-22 19:33N 09°22' W 079°53'2 2.0
2016-May-22 18:33N 09°21' W 079°55'5 4.8
2016-May-22 17:34N 09°17' W 079°55'0 0.4
2016-May-22 16:33N 09°16' W 079°55'3 3.5
2016-May-22 15:33N 09°13' W 079°55'1110.6
2016-May-22 14:33N 09°07' W 079°46'8 6.5
2016-May-22 13:19N 09°03' W 079°39'  

Dump ship's entire track history